createdAt,value
2023-10-13T00:00:50.394Z,6.30
2023-10-13T00:06:17.191Z,1.92
2023-10-13T00:16:32.583Z,2.63
2023-10-13T00:21:40.824Z,2.67
2023-10-13T00:26:47.280Z,3.47
2023-10-13T00:31:55.026Z,2.58
2023-10-13T00:37:19.470Z,3.05
2023-10-13T00:42:34.849Z,2.42
2023-10-13T00:47:41.789Z,6.18
2023-10-13T00:52:52.964Z,3.42
2023-10-13T00:58:03.927Z,7.93
2023-10-13T01:03:14.066Z,5.72
2023-10-13T01:08:39.452Z,6.05
2023-10-13T01:13:48.717Z,4.00
2023-10-13T01:19:00.993Z,4.45
2023-10-13T01:24:10.651Z,3.58
2023-10-13T01:29:17.368Z,5.65
2023-10-13T01:34:25.999Z,4.65
2023-10-13T01:39:33.949Z,4.18
2023-10-13T01:44:40.233Z,6.35
2023-10-13T01:49:49.681Z,6.00
2023-10-13T01:55:02.413Z,4.78
2023-10-13T02:00:20.479Z,5.82
2023-10-13T02:05:37.908Z,7.03
2023-10-13T02:10:46.046Z,8.25
2023-10-13T02:15:58.210Z,6.38
2023-10-13T02:21:07.160Z,3.63
2023-10-13T02:26:16.403Z,7.07
2023-10-13T02:31:25.840Z,7.07
2023-10-13T02:36:48.542Z,7.65
2023-10-13T02:41:57.814Z,6.50
2023-10-13T02:47:07.479Z,6.20
2023-10-13T02:52:14.520Z,5.75
2023-10-13T02:57:24.908Z,6.70
2023-10-13T03:02:33.446Z,7.05
2023-10-13T03:07:44.134Z,7.20
2023-10-13T03:12:52.823Z,7.40
2023-10-13T03:18:01.235Z,9.02
2023-10-13T03:23:11.166Z,7.57
2023-10-13T03:28:23.400Z,12.73
2023-10-13T03:33:32.543Z,10.05
2023-10-13T03:38:41.575Z,10.32
2023-10-13T03:49:03.693Z,8.82
2023-10-13T03:54:10.475Z,6.13
2023-10-13T03:59:21.472Z,12.35
2023-10-13T04:04:43.787Z,19.92
2023-10-13T04:10:12.415Z,19.83
2023-10-13T04:15:24.633Z,16.63
2023-10-13T04:20:39.825Z,20.88
2023-10-13T04:26:09.801Z,17.42
2023-10-13T04:31:42.865Z,14.20
2023-10-13T04:36:57.367Z,9.95
2023-10-13T04:42:15.097Z,11.57
2023-10-13T04:47:24.328Z,13.68
2023-10-13T04:53:03.188Z,10.38
2023-10-13T04:58:37.930Z,13.07
2023-10-13T05:04:10.306Z,9.40
2023-10-13T05:09:34.784Z,8.98
2023-10-13T05:14:59.540Z,13.07
2023-10-13T05:20:23.960Z,14.63
2023-10-13T05:25:48.134Z,12.98
2023-10-13T05:31:12.514Z,11.45
2023-10-13T05:36:37.874Z,14.55
2023-10-13T05:42:02.245Z,17.58
2023-10-13T05:47:46.065Z,19.00
2023-10-13T05:53:11.699Z,15.60
2023-10-13T05:58:36.387Z,15.32
2023-10-13T06:04:00.035Z,24.80
2023-10-13T06:09:28.458Z,12.70
2023-10-13T06:14:52.273Z,16.33
2023-10-13T06:20:17.620Z,19.50
2023-10-13T06:25:44.524Z,20.20
2023-10-13T06:31:03.000Z,17.80
2023-10-13T06:36:11.125Z,17.15
2023-10-13T06:41:32.411Z,18.20
2023-10-13T06:46:51.545Z,17.35
2023-10-13T06:52:01.908Z,17.42
2023-10-13T06:57:15.811Z,17.60
2023-10-13T07:02:28.479Z,20.85
2023-10-13T07:07:37.749Z,17.95
2023-10-13T07:12:45.769Z,15.82
2023-10-13T07:17:56.715Z,16.85
2023-10-13T07:23:07.356Z,12.73
2023-10-13T07:28:17.217Z,11.90
2023-10-13T07:33:25.458Z,14.93
2023-10-13T07:38:39.241Z,13.95
2023-10-13T07:43:47.711Z,13.90
2023-10-13T07:48:55.647Z,10.65
2023-10-13T07:54:08.432Z,13.73
2023-10-13T07:59:17.747Z,9.35
2023-10-13T08:04:30.968Z,9.75
2023-10-13T08:09:42.246Z,13.95
2023-10-13T08:14:50.729Z,11.38
2023-10-13T08:19:58.374Z,17.03
2023-10-13T08:25:30.684Z,9.00
2023-10-13T08:30:53.959Z,8.68
2023-10-13T08:36:19.336Z,10.45
2023-10-13T08:41:33.013Z,7.93
2023-10-13T08:47:05.665Z,6.70
2023-10-13T08:52:34.557Z,7.28
2023-10-13T08:57:42.369Z,8.57
2023-10-13T09:03:22.902Z,5.05
2023-10-13T09:08:37.216Z,12.40
2023-10-13T09:13:47.291Z,8.77
2023-10-13T09:19:06.645Z,18.05
2023-10-13T09:24:29.060Z,9.55
2023-10-13T09:29:40.517Z,8.20
2023-10-13T09:34:52.244Z,10.25
2023-10-13T09:40:07.102Z,12.30
2023-10-13T09:45:16.647Z,13.38
2023-10-13T09:50:27.089Z,13.93
2023-10-13T09:55:41.786Z,12.43
2023-10-13T10:00:59.846Z,9.77
2023-10-13T10:06:17.181Z,10.68
2023-10-13T10:12:09.715Z,9.90
2023-10-13T10:17:20.526Z,13.73
2023-10-13T10:22:37.351Z,21.80
2023-10-13T10:27:44.718Z,12.57
2023-10-13T10:33:01.847Z,10.20
2023-10-13T10:38:25.607Z,11.73
2023-10-13T10:43:45.447Z,10.15
2023-10-13T10:49:02.414Z,9.02
2023-10-13T10:54:20.922Z,6.68
2023-10-13T11:04:42.678Z,13.43
2023-10-13T11:10:06.533Z,9.52
2023-10-13T11:15:16.540Z,11.43
2023-10-13T11:20:34.518Z,9.25
2023-10-13T11:25:46.174Z,7.80
2023-10-13T11:30:53.037Z,10.68
2023-10-13T11:36:05.147Z,8.85
2023-10-13T11:41:16.232Z,8.52
2023-10-13T11:46:42.058Z,6.97
2023-10-13T11:51:50.611Z,6.40
2023-10-13T12:02:24.394Z,10.00
2023-10-13T12:07:47.002Z,5.80
2023-10-13T12:12:56.211Z,11.63
2023-10-13T12:18:05.172Z,7.78
2023-10-13T12:23:19.142Z,7.80
2023-10-13T12:28:30.210Z,8.80
2023-10-13T12:33:42.179Z,14.85
2023-10-13T12:39:06.773Z,11.38
2023-10-13T12:44:32.014Z,8.23
2023-10-13T12:49:51.094Z,14.27
2023-10-13T12:55:07.751Z,9.65
2023-10-13T13:00:25.600Z,8.30
2023-10-13T13:05:33.132Z,9.20
2023-10-13T13:10:40.474Z,11.23
2023-10-13T13:15:49.735Z,8.20
2023-10-13T13:20:57.378Z,7.97
2023-10-13T13:26:10.436Z,10.25
2023-10-13T13:31:18.881Z,7.50
2023-10-13T13:36:26.203Z,5.80
2023-10-13T13:41:34.644Z,10.93
2023-10-13T13:46:44.406Z,11.07
2023-10-13T13:51:54.164Z,9.18
2023-10-13T13:57:00.835Z,8.68
2023-10-13T14:02:21.470Z,8.35
2023-10-13T14:07:34.516Z,8.60
2023-10-13T14:12:44.136Z,12.73
2023-10-13T14:17:52.580Z,11.00
2023-10-13T14:22:59.531Z,6.90
2023-10-13T14:28:07.970Z,14.02
2023-10-13T14:33:16.411Z,9.20
2023-10-13T14:38:23.410Z,8.93
2023-10-13T14:43:30.207Z,6.70
2023-10-13T14:48:40.378Z,12.00
2023-10-13T14:53:49.326Z,20.98
2023-10-13T14:58:58.029Z,8.05
2023-10-13T15:04:06.787Z,9.43
2023-10-13T15:14:22.213Z,10.60
2023-10-13T15:19:37.799Z,13.52
2023-10-13T15:24:59.447Z,12.80
2023-10-13T15:30:21.487Z,8.35
2023-10-13T15:35:30.031Z,11.75
2023-10-13T15:45:50.469Z,9.68
2023-10-13T15:50:59.208Z,10.13
2023-10-13T15:56:13.104Z,12.73
2023-10-13T16:01:25.308Z,7.43
2023-10-13T16:06:34.790Z,9.13
2023-10-13T16:11:42.238Z,10.13
2023-10-13T16:16:51.069Z,8.55
2023-10-13T16:21:59.908Z,13.82
2023-10-13T16:27:08.038Z,10.73
2023-10-13T16:32:15.603Z,11.40
2023-10-13T16:37:23.951Z,10.65
2023-10-13T16:42:31.086Z,10.65
2023-10-13T16:47:38.330Z,12.52
2023-10-13T16:52:48.854Z,11.77
2023-10-13T16:57:56.053Z,10.05
2023-10-13T17:03:07.448Z,14.77
2023-10-13T17:08:17.227Z,12.00
2023-10-13T17:13:26.840Z,14.95
2023-10-13T17:18:34.638Z,16.50
2023-10-13T17:23:44.484Z,16.38
2023-10-13T17:28:51.916Z,10.45
2023-10-13T17:33:59.903Z,11.38
2023-10-13T17:39:11.762Z,11.50
2023-10-13T17:44:21.470Z,10.05
2023-10-13T17:49:31.462Z,10.73
2023-10-13T17:54:40.242Z,11.80
2023-10-13T17:59:47.622Z,11.25
2023-10-13T18:04:55.098Z,13.50
2023-10-13T18:10:06.861Z,11.70
2023-10-13T18:15:19.601Z,12.63
2023-10-13T18:20:27.949Z,11.18
2023-10-13T18:25:46.662Z,16.10
2023-10-13T18:31:03.238Z,10.43
2023-10-13T18:36:20.597Z,8.18
2023-10-13T18:41:32.717Z,12.30
2023-10-13T18:46:41.641Z,9.45
2023-10-13T18:57:01.854Z,13.02
2023-10-13T19:02:22.252Z,8.27
2023-10-13T19:07:41.511Z,9.27
2023-10-13T19:13:28.411Z,8.70
2023-10-13T19:19:36.560Z,10.27
2023-10-13T19:25:13.695Z,8.70
2023-10-13T19:30:34.902Z,9.25
2023-10-13T19:35:45.016Z,8.75
2023-10-13T19:41:49.039Z,8.63
2023-10-13T19:48:03.174Z,8.65
2023-10-13T19:53:45.538Z,6.95
2023-10-13T19:59:05.371Z,9.05
2023-10-13T20:04:22.343Z,7.55
2023-10-13T20:09:33.809Z,13.38
2023-10-13T20:14:43.486Z,8.13
2023-10-13T20:19:53.158Z,8.23
2023-10-13T20:25:02.356Z,10.35
2023-10-13T20:30:13.113Z,8.00
2023-10-13T20:35:25.016Z,8.77
2023-10-13T20:45:39.598Z,6.93
2023-10-13T20:50:49.033Z,8.18
2023-10-13T20:56:03.513Z,7.72
2023-10-13T21:01:15.438Z,9.25
2023-10-13T21:06:24.200Z,14.75
2023-10-13T21:11:31.328Z,8.77
2023-10-13T21:16:38.379Z,10.07
2023-10-13T21:21:47.237Z,7.93
2023-10-13T21:26:54.318Z,9.98
2023-10-13T21:32:01.132Z,7.47
2023-10-13T21:37:13.377Z,7.78
2023-10-13T21:42:20.731Z,8.75
2023-10-13T21:47:27.890Z,10.32
2023-10-13T21:52:37.163Z,6.53
2023-10-13T21:57:44.322Z,6.38
2023-10-13T22:02:52.526Z,7.13
2023-10-13T22:08:02.164Z,9.32
2023-10-13T22:13:10.124Z,6.38
2023-10-13T22:23:26.457Z,11.82
2023-10-13T22:28:34.045Z,5.93
2023-10-13T22:33:40.971Z,5.90
2023-10-13T22:38:55.765Z,6.88
2023-10-13T22:44:07.166Z,11.32
2023-10-13T22:49:16.628Z,8.50
2023-10-13T22:54:30.849Z,9.07
2023-10-13T22:59:37.946Z,7.80
2023-10-13T23:04:52.455Z,8.15
2023-10-13T23:10:02.161Z,8.02
2023-10-13T23:15:14.473Z,7.60
2023-10-13T23:20:21.728Z,7.47
2023-10-13T23:25:29.819Z,9.27
2023-10-13T23:30:38.491Z,9.00
2023-10-13T23:40:54.289Z,11.05
2023-10-13T23:46:02.181Z,9.52
2023-10-13T23:51:09.182Z,7.20
2023-10-13T23:56:30.544Z,12.18
